sensor_id;sensor_type;location;lat;lon;timestamp;P1;durP1;ratioP1;P2;durP2;ratioP2
11731;SDS011;5922;53.734;10.258;2023-08-12T00:00:38;2.70;;;2.50;;
11731;SDS011;5922;53.734;10.258;2023-08-12T00:03:06;3.80;;;2.33;;
11731;SDS011;5922;53.734;10.258;2023-08-12T00:05:33;3.73;;;2.40;;
11731;SDS011;5922;53.734;10.258;2023-08-12T00:10:49;2.97;;;2.67;;
11731;SDS011;5922;53.734;10.258;2023-08-12T00:13:16;4.60;;;2.70;;
11731;SDS011;5922;53.734;10.258;2023-08-12T00:15:44;4.27;;;2.60;;
11731;SDS011;5922;53.734;10.258;2023-08-12T00:18:11;3.67;;;2.93;;
11731;SDS011;5922;53.734;10.258;2023-08-12T00:20:38;7.00;;;2.83;;
11731;SDS011;5922;53.734;10.258;2023-08-12T00:23:06;3.70;;;2.50;;
11731;SDS011;5922;53.734;10.258;2023-08-12T00:25:33;2.43;;;2.23;;
11731;SDS011;5922;53.734;10.258;2023-08-12T00:28:02;3.63;;;2.50;;
11731;SDS011;5922;53.734;10.258;2023-08-12T00:30:29;5.10;;;2.60;;
11731;SDS011;5922;53.734;10.258;2023-08-12T00:32:56;3.70;;;2.60;;
11731;SDS011;5922;53.734;10.258;2023-08-12T00:35:24;6.63;;;3.13;;
11731;SDS011;5922;53.734;10.258;2023-08-12T00:38:01;3.93;;;2.90;;
11731;SDS011;5922;53.734;10.258;2023-08-12T00:40:29;2.70;;;2.50;;
11731;SDS011;5922;53.734;10.258;2023-08-12T00:42:58;3.67;;;2.50;;
11731;SDS011;5922;53.734;10.258;2023-08-12T00:45:27;4.37;;;2.40;;
11731;SDS011;5922;53.734;10.258;2023-08-12T00:47:54;3.47;;;2.67;;
11731;SDS011;5922;53.734;10.258;2023-08-12T00:50:21;2.77;;;2.50;;
11731;SDS011;5922;53.734;10.258;2023-08-12T00:52:49;2.60;;;2.40;;
11731;SDS011;5922;53.734;10.258;2023-08-12T00:55:17;5.07;;;2.70;;
11731;SDS011;5922;53.734;10.258;2023-08-12T00:57:45;3.47;;;2.53;;
11731;SDS011;5922;53.734;10.258;2023-08-12T01:00:12;2.57;;;2.33;;
11731;SDS011;5922;53.734;10.258;2023-08-12T01:02:41;4.50;;;2.77;;
11731;SDS011;5922;53.734;10.258;2023-08-12T01:05:13;6.03;;;2.60;;
11731;SDS011;5922;53.734;10.258;2023-08-12T01:07:49;6.20;;;2.67;;
11731;SDS011;5922;53.734;10.258;2023-08-12T01:10:18;5.43;;;2.60;;
11731;SDS011;5922;53.734;10.258;2023-08-12T01:12:50;2.97;;;2.60;;
11731;SDS011;5922;53.734;10.258;2023-08-12T01:15:23;3.60;;;2.33;;
11731;SDS011;5922;53.734;10.258;2023-08-12T01:18:12;2.73;;;2.53;;
11731;SDS011;5922;53.734;10.258;2023-08-12T01:20:42;2.60;;;2.40;;
11731;SDS011;5922;53.734;10.258;2023-08-12T01:23:15;3.47;;;2.40;;
11731;SDS011;5922;53.734;10.258;2023-08-12T01:25:45;4.10;;;2.50;;
11731;SDS011;5922;53.734;10.258;2023-08-12T01:47:18;6.33;;;2.50;;
11731;SDS011;5922;53.734;10.258;2023-08-12T01:49:45;4.03;;;2.50;;
11731;SDS011;5922;53.734;10.258;2023-08-12T01:52:12;8.10;;;3.00;;
11731;SDS011;5922;53.734;10.258;2023-08-12T01:54:40;3.67;;;2.40;;
11731;SDS011;5922;53.734;10.258;2023-08-12T01:57:07;4.27;;;2.73;;
11731;SDS011;5922;53.734;10.258;2023-08-12T01:59:35;4.83;;;2.50;;
11731;SDS011;5922;53.734;10.258;2023-08-12T02:02:02;5.27;;;2.37;;
11731;SDS011;5922;53.734;10.258;2023-08-12T02:04:31;4.60;;;2.80;;
11731;SDS011;5922;53.734;10.258;2023-08-12T02:06:59;7.30;;;2.90;;
11731;SDS011;5922;53.734;10.258;2023-08-12T02:09:26;2.37;;;1.90;;
11731;SDS011;5922;53.734;10.258;2023-08-12T02:11:58;3.70;;;2.40;;
11731;SDS011;5922;53.734;10.258;2023-08-12T02:14:28;4.17;;;2.63;;
11731;SDS011;5922;53.734;10.258;2023-08-12T02:16:55;2.50;;;2.30;;
11731;SDS011;5922;53.734;10.258;2023-08-12T02:19:23;4.80;;;2.70;;
11731;SDS011;5922;53.734;10.258;2023-08-12T02:21:51;4.37;;;2.50;;
11731;SDS011;5922;53.734;10.258;2023-08-12T02:24:18;3.63;;;2.70;;
11731;SDS011;5922;53.734;10.258;2023-08-12T02:26:46;3.30;;;2.53;;
11731;SDS011;5922;53.734;10.258;2023-08-12T02:29:13;3.57;;;2.37;;
11731;SDS011;5922;53.734;10.258;2023-08-12T02:31:40;7.20;;;2.50;;
11731;SDS011;5922;53.734;10.258;2023-08-12T02:34:08;3.33;;;2.43;;
11731;SDS011;5922;53.734;10.258;2023-08-12T02:36:36;5.57;;;2.10;;
11731;SDS011;5922;53.734;10.258;2023-08-12T02:39:05;2.63;;;2.43;;
11731;SDS011;5922;53.734;10.258;2023-08-12T02:41:32;4.37;;;2.67;;
11731;SDS011;5922;53.734;10.258;2023-08-12T02:43:59;2.50;;;2.30;;
11731;SDS011;5922;53.734;10.258;2023-08-12T02:46:27;4.90;;;2.40;;
11731;SDS011;5922;53.734;10.258;2023-08-12T02:49:02;4.03;;;2.50;;
11731;SDS011;5922;53.734;10.258;2023-08-12T02:51:29;5.90;;;2.53;;
11731;SDS011;5922;53.734;10.258;2023-08-12T02:53:56;3.03;;;2.60;;
11731;SDS011;5922;53.734;10.258;2023-08-12T02:56:25;3.40;;;2.50;;
11731;SDS011;5922;53.734;10.258;2023-08-12T02:58:52;3.40;;;2.20;;
11731;SDS011;5922;53.734;10.258;2023-08-12T03:01:20;3.20;;;2.47;;
11731;SDS011;5922;53.734;10.258;2023-08-12T03:03:47;4.33;;;2.87;;
11731;SDS011;5922;53.734;10.258;2023-08-12T03:06:14;4.43;;;2.50;;
11731;SDS011;5922;53.734;10.258;2023-08-12T03:08:55;2.50;;;2.30;;
11731;SDS011;5922;53.734;10.258;2023-08-12T03:11:22;2.57;;;2.37;;
11731;SDS011;5922;53.734;10.258;2023-08-12T03:13:51;4.70;;;2.47;;
11731;SDS011;5922;53.734;10.258;2023-08-12T03:16:18;6.03;;;3.27;;
11731;SDS011;5922;53.734;10.258;2023-08-12T03:18:46;3.03;;;2.30;;
11731;SDS011;5922;53.734;10.258;2023-08-12T03:21:13;2.93;;;2.53;;
11731;SDS011;5922;53.734;10.258;2023-08-12T03:23:40;4.73;;;2.60;;
11731;SDS011;5922;53.734;10.258;2023-08-12T03:26:07;2.67;;;2.40;;
11731;SDS011;5922;53.734;10.258;2023-08-12T03:28:35;5.03;;;2.53;;
11731;SDS011;5922;53.734;10.258;2023-08-12T03:31:03;5.73;;;2.83;;
11731;SDS011;5922;53.734;10.258;2023-08-12T03:33:31;4.03;;;2.73;;
11731;SDS011;5922;53.734;10.258;2023-08-12T03:35:58;3.60;;;2.90;;
11731;SDS011;5922;53.734;10.258;2023-08-12T03:38:26;2.80;;;2.50;;
11731;SDS011;5922;53.734;10.258;2023-08-12T03:40:53;4.47;;;2.40;;
11731;SDS011;5922;53.734;10.258;2023-08-12T03:43:20;2.47;;;2.27;;
11731;SDS011;5922;53.734;10.258;2023-08-12T03:45:48;2.90;;;2.70;;
11731;SDS011;5922;53.734;10.258;2023-08-12T03:48:16;3.80;;;2.40;;
11731;SDS011;5922;53.734;10.258;2023-08-12T03:50:43;2.53;;;2.33;;
11731;SDS011;5922;53.734;10.258;2023-08-12T03:53:12;3.73;;;2.60;;
11731;SDS011;5922;53.734;10.258;2023-08-12T03:55:39;2.83;;;2.63;;
11731;SDS011;5922;53.734;10.258;2023-08-12T03:58:08;8.50;;;2.57;;
11731;SDS011;5922;53.734;10.258;2023-08-12T04:00:35;2.63;;;2.33;;
11731;SDS011;5922;53.734;10.258;2023-08-12T04:03:07;3.07;;;2.77;;
11731;SDS011;5922;53.734;10.258;2023-08-12T04:05:36;4.63;;;2.77;;
11731;SDS011;5922;53.734;10.258;2023-08-12T04:08:03;3.27;;;2.70;;
11731;SDS011;5922;53.734;10.258;2023-08-12T04:10:31;3.73;;;2.50;;
11731;SDS011;5922;53.734;10.258;2023-08-12T04:12:58;2.57;;;2.37;;
11731;SDS011;5922;53.734;10.258;2023-08-12T04:15:25;3.37;;;2.40;;
11731;SDS011;5922;53.734;10.258;2023-08-12T04:17:52;4.97;;;3.10;;
11731;SDS011;5922;53.734;10.258;2023-08-12T04:20:20;4.50;;;2.57;;
11731;SDS011;5922;53.734;10.258;2023-08-12T04:22:48;3.43;;;2.63;;
11731;SDS011;5922;53.734;10.258;2023-08-12T04:25:16;3.63;;;2.60;;
11731;SDS011;5922;53.734;10.258;2023-08-12T04:27:43;3.60;;;2.93;;
11731;SDS011;5922;53.734;10.258;2023-08-12T04:30:12;6.00;;;2.93;;
11731;SDS011;5922;53.734;10.258;2023-08-12T04:32:39;3.83;;;2.60;;
11731;SDS011;5922;53.734;10.258;2023-08-12T04:35:07;6.20;;;2.77;;
11731;SDS011;5922;53.734;10.258;2023-08-12T04:37:35;2.70;;;2.50;;
11731;SDS011;5922;53.734;10.258;2023-08-12T04:40:04;3.60;;;2.80;;
11731;SDS011;5922;53.734;10.258;2023-08-12T04:42:32;3.00;;;2.33;;
11731;SDS011;5922;53.734;10.258;2023-08-12T04:45:00;2.70;;;2.50;;
11731;SDS011;5922;53.734;10.258;2023-08-12T04:47:28;3.13;;;2.40;;
11731;SDS011;5922;53.734;10.258;2023-08-12T04:49:55;4.13;;;2.53;;
11731;SDS011;5922;53.734;10.258;2023-08-12T04:52:25;3.03;;;2.60;;
11731;SDS011;5922;53.734;10.258;2023-08-12T04:54:54;3.27;;;2.63;;
11731;SDS011;5922;53.734;10.258;2023-08-12T04:57:26;4.80;;;2.90;;
11731;SDS011;5922;53.734;10.258;2023-08-12T05:00:00;8.07;;;2.80;;
11731;SDS011;5922;53.734;10.258;2023-08-12T05:02:33;2.90;;;2.70;;
11731;SDS011;5922;53.734;10.258;2023-08-12T05:05:03;4.50;;;2.97;;
11731;SDS011;5922;53.734;10.258;2023-08-12T05:07:31;3.73;;;2.60;;
11731;SDS011;5922;53.734;10.258;2023-08-12T05:09:59;2.63;;;2.40;;
11731;SDS011;5922;53.734;10.258;2023-08-12T05:12:27;2.60;;;2.40;;
11731;SDS011;5922;53.734;10.258;2023-08-12T05:14:55;4.87;;;3.10;;
11731;SDS011;5922;53.734;10.258;2023-08-12T05:17:23;3.20;;;2.90;;
11731;SDS011;5922;53.734;10.258;2023-08-12T05:19:50;5.80;;;2.90;;
11731;SDS011;5922;53.734;10.258;2023-08-12T05:22:18;2.93;;;2.63;;
11731;SDS011;5922;53.734;10.258;2023-08-12T05:24:46;3.70;;;2.93;;
11731;SDS011;5922;53.734;10.258;2023-08-12T05:27:13;2.90;;;2.60;;
11731;SDS011;5922;53.734;10.258;2023-08-12T05:29:42;4.73;;;2.97;;
11731;SDS011;5922;53.734;10.258;2023-08-12T05:32:09;3.00;;;2.53;;
11731;SDS011;5922;53.734;10.258;2023-08-12T05:34:36;6.03;;;2.73;;
11731;SDS011;5922;53.734;10.258;2023-08-12T05:37:04;3.50;;;2.80;;
11731;SDS011;5922;53.734;10.258;2023-08-12T05:39:31;3.50;;;2.90;;
11731;SDS011;5922;53.734;10.258;2023-08-12T05:42:03;10.10;;;2.93;;
11731;SDS011;5922;53.734;10.258;2023-08-12T05:44:31;5.37;;;3.00;;
11731;SDS011;5922;53.734;10.258;2023-08-12T05:47:00;4.20;;;2.97;;
11731;SDS011;5922;53.734;10.258;2023-08-12T05:49:27;5.90;;;2.83;;
11731;SDS011;5922;53.734;10.258;2023-08-12T05:51:54;3.40;;;2.90;;
11731;SDS011;5922;53.734;10.258;2023-08-12T05:54:21;3.17;;;2.43;;
11731;SDS011;5922;53.734;10.258;2023-08-12T05:56:49;4.67;;;3.20;;
11731;SDS011;5922;53.734;10.258;2023-08-12T05:59:16;4.30;;;2.63;;
11731;SDS011;5922;53.734;10.258;2023-08-12T06:01:43;5.23;;;2.83;;
11731;SDS011;5922;53.734;10.258;2023-08-12T06:04:12;3.80;;;2.77;;
11731;SDS011;5922;53.734;10.258;2023-08-12T06:06:41;6.07;;;3.00;;
11731;SDS011;5922;53.734;10.258;2023-08-12T06:09:12;3.20;;;2.90;;
11731;SDS011;5922;53.734;10.258;2023-08-12T06:11:39;3.63;;;2.93;;
11731;SDS011;5922;53.734;10.258;2023-08-12T06:14:06;3.87;;;3.00;;
11731;SDS011;5922;53.734;10.258;2023-08-12T06:16:33;3.70;;;2.93;;
11731;SDS011;5922;53.734;10.258;2023-08-12T06:19:01;4.57;;;3.20;;
11731;SDS011;5922;53.734;10.258;2023-08-12T06:21:34;6.33;;;3.20;;
11731;SDS011;5922;53.734;10.258;2023-08-12T06:24:01;3.50;;;3.20;;
11731;SDS011;5922;53.734;10.258;2023-08-12T06:26:29;3.87;;;3.30;;
11731;SDS011;5922;53.734;10.258;2023-08-12T06:29:00;3.67;;;3.30;;
11731;SDS011;5922;53.734;10.258;2023-08-12T06:31:29;4.63;;;3.23;;
11731;SDS011;5922;53.734;10.258;2023-08-12T06:33:57;3.97;;;3.20;;
11731;SDS011;5922;53.734;10.258;2023-08-12T06:36:27;3.30;;;3.00;;
11731;SDS011;5922;53.734;10.258;2023-08-12T06:38:55;5.07;;;3.20;;
11731;SDS011;5922;53.734;10.258;2023-08-12T06:41:28;3.40;;;3.10;;
11731;SDS011;5922;53.734;10.258;2023-08-12T06:43:55;4.20;;;3.10;;
11731;SDS011;5922;53.734;10.258;2023-08-12T06:46:25;4.47;;;3.73;;
11731;SDS011;5922;53.734;10.258;2023-08-12T06:48:53;3.70;;;3.40;;
11731;SDS011;5922;53.734;10.258;2023-08-12T06:51:20;4.97;;;3.20;;
11731;SDS011;5922;53.734;10.258;2023-08-12T06:53:48;3.57;;;3.23;;
11731;SDS011;5922;53.734;10.258;2023-08-12T06:56:16;4.07;;;3.63;;
11731;SDS011;5922;53.734;10.258;2023-08-12T06:58:43;4.00;;;3.33;;
11731;SDS011;5922;53.734;10.258;2023-08-12T07:01:11;7.70;;;4.10;;
11731;SDS011;5922;53.734;10.258;2023-08-12T07:03:38;4.37;;;3.30;;
11731;SDS011;5922;53.734;10.258;2023-08-12T07:06:05;4.93;;;3.67;;
11731;SDS011;5922;53.734;10.258;2023-08-12T07:08:33;5.13;;;3.40;;
11731;SDS011;5922;53.734;10.258;2023-08-12T07:11:00;5.10;;;3.40;;
11731;SDS011;5922;53.734;10.258;2023-08-12T07:13:28;5.87;;;3.67;;
11731;SDS011;5922;53.734;10.258;2023-08-12T07:15:56;4.33;;;3.83;;
11731;SDS011;5922;53.734;10.258;2023-08-12T07:18:28;3.93;;;3.40;;
11731;SDS011;5922;53.734;10.258;2023-08-12T07:20:59;6.00;;;3.40;;
11731;SDS011;5922;53.734;10.258;2023-08-12T07:23:29;4.33;;;3.83;;
11731;SDS011;5922;53.734;10.258;2023-08-12T07:25:56;4.90;;;3.73;;
11731;SDS011;5922;53.734;10.258;2023-08-12T07:28:26;4.67;;;4.27;;
11731;SDS011;5922;53.734;10.258;2023-08-12T07:30:55;4.90;;;4.00;;
11731;SDS011;5922;53.734;10.258;2023-08-12T07:33:22;12.13;;;4.37;;
11731;SDS011;5922;53.734;10.258;2023-08-12T07:35:52;4.50;;;4.10;;
11731;SDS011;5922;53.734;10.258;2023-08-12T07:38:19;4.70;;;3.70;;
11731;SDS011;5922;53.734;10.258;2023-08-12T07:40:48;5.40;;;4.03;;
11731;SDS011;5922;53.734;10.258;2023-08-12T07:43:17;5.20;;;4.00;;
11731;SDS011;5922;53.734;10.258;2023-08-12T07:45:44;5.10;;;4.20;;
11731;SDS011;5922;53.734;10.258;2023-08-12T07:48:13;6.33;;;3.83;;
11731;SDS011;5922;53.734;10.258;2023-08-12T07:50:54;4.30;;;3.90;;
11731;SDS011;5922;53.734;10.258;2023-08-12T07:53:21;4.90;;;4.27;;
11731;SDS011;5922;53.734;10.258;2023-08-12T07:58:38;5.47;;;4.23;;
11731;SDS011;5922;53.734;10.258;2023-08-12T08:01:10;6.57;;;4.20;;
11731;SDS011;5922;53.734;10.258;2023-08-12T08:03:54;4.43;;;4.03;;
11731;SDS011;5922;53.734;10.258;2023-08-12T08:06:21;4.43;;;4.03;;
11731;SDS011;5922;53.734;10.258;2023-08-12T08:08:49;6.03;;;4.50;;
11731;SDS011;5922;53.734;10.258;2023-08-12T08:11:16;4.83;;;4.43;;
11731;SDS011;5922;53.734;10.258;2023-08-12T08:13:43;6.87;;;4.40;;
11731;SDS011;5922;53.734;10.258;2023-08-12T08:16:25;5.33;;;4.70;;
11731;SDS011;5922;53.734;10.258;2023-08-12T08:21:45;6.80;;;4.67;;
11731;SDS011;5922;53.734;10.258;2023-08-12T08:24:12;5.77;;;5.27;;
11731;SDS011;5922;53.734;10.258;2023-08-12T08:26:39;6.20;;;4.90;;
11731;SDS011;5922;53.734;10.258;2023-08-12T08:29:06;6.70;;;4.97;;
11731;SDS011;5922;53.734;10.258;2023-08-12T08:31:34;6.17;;;5.10;;
11731;SDS011;5922;53.734;10.258;2023-08-12T08:34:01;7.07;;;4.80;;
11731;SDS011;5922;53.734;10.258;2023-08-12T08:36:45;5.70;;;4.90;;
11731;SDS011;5922;53.734;10.258;2023-08-12T08:39:12;8.60;;;4.97;;
11731;SDS011;5922;53.734;10.258;2023-08-12T08:41:39;6.73;;;5.30;;
11731;SDS011;5922;53.734;10.258;2023-08-12T08:44:07;7.23;;;4.97;;
11731;SDS011;5922;53.734;10.258;2023-08-12T08:46:35;7.97;;;5.43;;
11731;SDS011;5922;53.734;10.258;2023-08-12T08:49:07;8.30;;;5.30;;
11731;SDS011;5922;53.734;10.258;2023-08-12T08:51:36;6.87;;;5.50;;
11731;SDS011;5922;53.734;10.258;2023-08-12T08:54:05;5.33;;;4.83;;
11731;SDS011;5922;53.734;10.258;2023-08-12T08:56:32;8.17;;;5.40;;
11731;SDS011;5922;53.734;10.258;2023-08-12T08:58:59;6.37;;;5.73;;
11731;SDS011;5922;53.734;10.258;2023-08-12T09:01:26;5.90;;;5.00;;
11731;SDS011;5922;53.734;10.258;2023-08-12T09:03:55;5.47;;;4.97;;
11731;SDS011;5922;53.734;10.258;2023-08-12T09:09:28;6.00;;;5.20;;
11731;SDS011;5922;53.734;10.258;2023-08-12T09:14:46;8.03;;;5.20;;
11731;SDS011;5922;53.734;10.258;2023-08-12T09:17:18;8.27;;;5.77;;
11731;SDS011;5922;53.734;10.258;2023-08-12T09:19:45;7.10;;;4.67;;
11731;SDS011;5922;53.734;10.258;2023-08-12T09:22:13;6.47;;;5.00;;
11731;SDS011;5922;53.734;10.258;2023-08-12T09:24:46;5.70;;;5.20;;
11731;SDS011;5922;53.734;10.258;2023-08-12T09:27:18;8.70;;;5.37;;
11731;SDS011;5922;53.734;10.258;2023-08-12T09:29:46;5.87;;;5.23;;
11731;SDS011;5922;53.734;10.258;2023-08-12T09:35:15;8.03;;;5.63;;
11731;SDS011;5922;53.734;10.258;2023-08-12T09:37:43;7.03;;;5.70;;
11731;SDS011;5922;53.734;10.258;2023-08-12T09:40:20;5.50;;;5.00;;
11731;SDS011;5922;53.734;10.258;2023-08-12T09:42:49;6.47;;;5.67;;
11731;SDS011;5922;53.734;10.258;2023-08-12T09:45:16;8.10;;;5.63;;
11731;SDS011;5922;53.734;10.258;2023-08-12T09:47:46;8.67;;;5.50;;
11731;SDS011;5922;53.734;10.258;2023-08-12T09:53:21;6.03;;;5.27;;
11731;SDS011;5922;53.734;10.258;2023-08-12T09:55:50;6.00;;;5.30;;
11731;SDS011;5922;53.734;10.258;2023-08-12T09:58:19;9.20;;;5.13;;
11731;SDS011;5922;53.734;10.258;2023-08-12T10:00:54;6.57;;;4.90;;
11731;SDS011;5922;53.734;10.258;2023-08-12T10:03:22;6.00;;;4.90;;
11731;SDS011;5922;53.734;10.258;2023-08-12T10:05:51;6.47;;;5.10;;
11731;SDS011;5922;53.734;10.258;2023-08-12T10:08:21;6.30;;;5.50;;
11731;SDS011;5922;53.734;10.258;2023-08-12T10:10:50;8.07;;;5.47;;
11731;SDS011;5922;53.734;10.258;2023-08-12T10:13:21;8.83;;;5.40;;
11731;SDS011;5922;53.734;10.258;2023-08-12T10:15:57;6.67;;;5.10;;
11731;SDS011;5922;53.734;10.258;2023-08-12T10:18:26;5.20;;;4.70;;
11731;SDS011;5922;53.734;10.258;2023-08-12T10:20:57;10.37;;;5.47;;
11731;SDS011;5922;53.734;10.258;2023-08-12T10:23:24;5.63;;;5.13;;
11731;SDS011;5922;53.734;10.258;2023-08-12T10:26:00;7.60;;;5.60;;
11731;SDS011;5922;53.734;10.258;2023-08-12T10:28:29;8.07;;;4.97;;
11731;SDS011;5922;53.734;10.258;2023-08-12T10:30:56;8.27;;;5.80;;
11731;SDS011;5922;53.734;10.258;2023-08-12T10:33:24;8.03;;;5.40;;
11731;SDS011;5922;53.734;10.258;2023-08-12T10:35:51;7.10;;;5.93;;
11731;SDS011;5922;53.734;10.258;2023-08-12T10:38:22;8.13;;;5.43;;
11731;SDS011;5922;53.734;10.258;2023-08-12T10:40:52;7.97;;;5.20;;
11731;SDS011;5922;53.734;10.258;2023-08-12T10:43:20;7.67;;;6.03;;
11731;SDS011;5922;53.734;10.258;2023-08-12T10:45:48;9.10;;;5.03;;
11731;SDS011;5922;53.734;10.258;2023-08-12T10:48:16;6.13;;;5.23;;
11731;SDS011;5922;53.734;10.258;2023-08-12T10:50:45;6.63;;;5.27;;
11731;SDS011;5922;53.734;10.258;2023-08-12T10:53:22;7.43;;;5.43;;
11731;SDS011;5922;53.734;10.258;2023-08-12T10:55:54;6.87;;;4.93;;
11731;SDS011;5922;53.734;10.258;2023-08-12T10:58:27;6.23;;;5.63;;
11731;SDS011;5922;53.734;10.258;2023-08-12T11:00:55;7.53;;;5.70;;
11731;SDS011;5922;53.734;10.258;2023-08-12T11:03:26;5.30;;;4.83;;
11731;SDS011;5922;53.734;10.258;2023-08-12T11:05:59;7.67;;;6.10;;
11731;SDS011;5922;53.734;10.258;2023-08-12T11:08:28;6.60;;;6.00;;
11731;SDS011;5922;53.734;10.258;2023-08-12T11:10:55;6.97;;;5.83;;
11731;SDS011;5922;53.734;10.258;2023-08-12T11:13:28;7.47;;;6.70;;
11731;SDS011;5922;53.734;10.258;2023-08-12T11:16:05;8.47;;;6.93;;
11731;SDS011;5922;53.734;10.258;2023-08-12T11:18:32;8.60;;;7.27;;
11731;SDS011;5922;53.734;10.258;2023-08-12T11:21:02;8.93;;;8.10;;
11731;SDS011;5922;53.734;10.258;2023-08-12T11:23:30;8.50;;;7.40;;
11731;SDS011;5922;53.734;10.258;2023-08-12T11:25:58;7.13;;;6.43;;
11731;SDS011;5922;53.734;10.258;2023-08-12T11:28:25;7.80;;;6.03;;
11731;SDS011;5922;53.734;10.258;2023-08-12T11:30:54;9.33;;;7.30;;
11731;SDS011;5922;53.734;10.258;2023-08-12T11:33:22;8.13;;;6.43;;
11731;SDS011;5922;53.734;10.258;2023-08-12T11:35:50;7.03;;;6.37;;
11731;SDS011;5922;53.734;10.258;2023-08-12T11:38:18;9.17;;;6.50;;
11731;SDS011;5922;53.734;10.258;2023-08-12T11:43:47;7.60;;;5.97;;
11731;SDS011;5922;53.734;10.258;2023-08-12T11:46:16;6.60;;;6.00;;
11731;SDS011;5922;53.734;10.258;2023-08-12T11:48:44;6.70;;;6.00;;
11731;SDS011;5922;53.734;10.258;2023-08-12T11:51:11;6.10;;;5.50;;
11731;SDS011;5922;53.734;10.258;2023-08-12T11:53:38;7.40;;;6.53;;
11731;SDS011;5922;53.734;10.258;2023-08-12T11:56:07;6.47;;;5.60;;
11731;SDS011;5922;53.734;10.258;2023-08-12T11:58:35;6.77;;;4.97;;
11731;SDS011;5922;53.734;10.258;2023-08-12T12:01:03;5.23;;;4.73;;
11731;SDS011;5922;53.734;10.258;2023-08-12T12:03:38;8.33;;;4.43;;
11731;SDS011;5922;53.734;10.258;2023-08-12T12:06:08;4.23;;;3.80;;
11731;SDS011;5922;53.734;10.258;2023-08-12T12:08:35;5.10;;;4.60;;
11731;SDS011;5922;53.734;10.258;2023-08-12T12:11:03;4.00;;;3.60;;
11731;SDS011;5922;53.734;10.258;2023-08-12T12:13:31;4.23;;;3.83;;
11731;SDS011;5922;53.734;10.258;2023-08-12T12:15:58;4.43;;;3.70;;
11731;SDS011;5922;53.734;10.258;2023-08-12T12:18:26;4.37;;;3.97;;
11731;SDS011;5922;53.734;10.258;2023-08-12T12:20:55;4.57;;;3.77;;
11731;SDS011;5922;53.734;10.258;2023-08-12T12:23:26;4.10;;;3.60;;
11731;SDS011;5922;53.734;10.258;2023-08-12T12:25:56;6.50;;;3.40;;
11731;SDS011;5922;53.734;10.258;2023-08-12T12:28:23;5.57;;;3.83;;
11731;SDS011;5922;53.734;10.258;2023-08-12T12:30:50;4.30;;;3.90;;
11731;SDS011;5922;53.734;10.258;2023-08-12T12:33:18;4.00;;;3.40;;
11731;SDS011;5922;53.734;10.258;2023-08-12T12:35:47;4.10;;;3.70;;
11731;SDS011;5922;53.734;10.258;2023-08-12T12:38:16;3.87;;;3.57;;
11731;SDS011;5922;53.734;10.258;2023-08-12T12:40:43;4.57;;;3.77;;
11731;SDS011;5922;53.734;10.258;2023-08-12T12:43:11;5.57;;;4.23;;
11731;SDS011;5922;53.734;10.258;2023-08-12T12:45:38;6.40;;;3.90;;
11731;SDS011;5922;53.734;10.258;2023-08-12T12:48:05;4.13;;;3.73;;
11731;SDS011;5922;53.734;10.258;2023-08-12T12:50:32;6.63;;;3.87;;
11731;SDS011;5922;53.734;10.258;2023-08-12T12:53:00;4.27;;;3.77;;
11731;SDS011;5922;53.734;10.258;2023-08-12T12:55:32;6.13;;;4.10;;
11731;SDS011;5922;53.734;10.258;2023-08-12T12:57:59;5.97;;;3.93;;
11731;SDS011;5922;53.734;10.258;2023-08-12T13:00:27;4.37;;;3.97;;
11731;SDS011;5922;53.734;10.258;2023-08-12T13:03:07;4.07;;;3.50;;
11731;SDS011;5922;53.734;10.258;2023-08-12T13:15:09;4.73;;;4.23;;
11731;SDS011;5922;53.734;10.258;2023-08-12T13:26:37;5.60;;;4.60;;
11731;SDS011;5922;53.734;10.258;2023-08-12T13:29:41;4.83;;;4.30;;
11731;SDS011;5922;53.734;10.258;2023-08-12T13:32:21;4.20;;;3.80;;
11731;SDS011;5922;53.734;10.258;2023-08-12T13:34:52;4.30;;;3.90;;
11731;SDS011;5922;53.734;10.258;2023-08-12T13:37:20;4.33;;;3.90;;
11731;SDS011;5922;53.734;10.258;2023-08-12T13:39:47;4.27;;;3.87;;
11731;SDS011;5922;53.734;10.258;2023-08-12T13:42:18;4.50;;;3.80;;
11731;SDS011;5922;53.734;10.258;2023-08-12T13:44:50;4.30;;;3.90;;
11731;SDS011;5922;53.734;10.258;2023-08-12T13:47:31;4.53;;;3.53;;
11731;SDS011;5922;53.734;10.258;2023-08-12T13:50:01;5.87;;;4.80;;
11731;SDS011;5922;53.734;10.258;2023-08-12T13:52:28;5.30;;;4.80;;
11731;SDS011;5922;53.734;10.258;2023-08-12T13:55:02;6.57;;;4.87;;
11731;SDS011;5922;53.734;10.258;2023-08-12T13:57:34;4.73;;;4.33;;
11731;SDS011;5922;53.734;10.258;2023-08-12T14:00:02;5.87;;;3.80;;
11731;SDS011;5922;53.734;10.258;2023-08-12T14:02:39;4.90;;;4.40;;
11731;SDS011;5922;53.734;10.258;2023-08-12T14:05:09;5.60;;;4.13;;
11731;SDS011;5922;53.734;10.258;2023-08-12T14:07:53;5.03;;;4.53;;
11731;SDS011;5922;53.734;10.258;2023-08-12T14:10:30;5.10;;;4.60;;
11731;SDS011;5922;53.734;10.258;2023-08-12T14:13:01;4.70;;;4.30;;
11731;SDS011;5922;53.734;10.258;2023-08-12T14:15:43;7.83;;;4.47;;
11731;SDS011;5922;53.734;10.258;2023-08-12T14:18:17;4.70;;;4.20;;
11731;SDS011;5922;53.734;10.258;2023-08-12T14:20:47;6.30;;;4.23;;
11731;SDS011;5922;53.734;10.258;2023-08-12T14:23:20;4.00;;;3.70;;
11731;SDS011;5922;53.734;10.258;2023-08-12T14:25:49;4.70;;;4.20;;
11731;SDS011;5922;53.734;10.258;2023-08-12T14:28:19;5.73;;;5.03;;
11731;SDS011;5922;53.734;10.258;2023-08-12T14:30:46;8.27;;;5.67;;
11731;SDS011;5922;53.734;10.258;2023-08-12T14:33:18;5.40;;;4.93;;
11731;SDS011;5922;53.734;10.258;2023-08-12T14:35:45;8.20;;;7.40;;
11731;SDS011;5922;53.734;10.258;2023-08-12T14:38:12;7.10;;;5.73;;
11731;SDS011;5922;53.734;10.258;2023-08-12T14:40:39;7.23;;;5.13;;
11731;SDS011;5922;53.734;10.258;2023-08-12T14:43:13;6.33;;;4.40;;
11731;SDS011;5922;53.734;10.258;2023-08-12T14:45:44;5.20;;;4.70;;
11731;SDS011;5922;53.734;10.258;2023-08-12T14:48:11;5.30;;;4.60;;
11731;SDS011;5922;53.734;10.258;2023-08-12T14:50:44;5.17;;;4.70;;
11731;SDS011;5922;53.734;10.258;2023-08-12T14:53:14;5.23;;;4.73;;
11731;SDS011;5922;53.734;10.258;2023-08-12T14:55:43;6.13;;;5.53;;
11731;SDS011;5922;53.734;10.258;2023-08-12T14:58:12;5.20;;;4.70;;
11731;SDS011;5922;53.734;10.258;2023-08-12T15:00:42;5.70;;;5.20;;
11731;SDS011;5922;53.734;10.258;2023-08-12T15:03:09;7.07;;;5.23;;
11731;SDS011;5922;53.734;10.258;2023-08-12T15:05:38;5.87;;;4.90;;
11731;SDS011;5922;53.734;10.258;2023-08-12T15:08:11;6.20;;;5.33;;
11731;SDS011;5922;53.734;10.258;2023-08-12T15:10:38;5.80;;;5.10;;
11731;SDS011;5922;53.734;10.258;2023-08-12T15:13:05;6.50;;;5.60;;
11731;SDS011;5922;53.734;10.258;2023-08-12T15:15:37;6.27;;;5.50;;
11731;SDS011;5922;53.734;10.258;2023-08-12T15:18:07;7.30;;;6.10;;
11731;SDS011;5922;53.734;10.258;2023-08-12T15:20:37;7.10;;;5.00;;
11731;SDS011;5922;53.734;10.258;2023-08-12T15:23:08;5.77;;;4.83;;
11731;SDS011;5922;53.734;10.258;2023-08-12T15:25:46;6.97;;;4.90;;
11731;SDS011;5922;53.734;10.258;2023-08-12T15:28:16;5.60;;;5.10;;
11731;SDS011;5922;53.734;10.258;2023-08-12T15:30:52;6.43;;;5.53;;
11731;SDS011;5922;53.734;10.258;2023-08-12T15:33:20;5.90;;;5.23;;
11731;SDS011;5922;53.734;10.258;2023-08-12T15:35:47;5.90;;;5.33;;
11731;SDS011;5922;53.734;10.258;2023-08-12T15:38:15;6.63;;;5.97;;
11731;SDS011;5922;53.734;10.258;2023-08-12T15:40:42;6.80;;;5.60;;
11731;SDS011;5922;53.734;10.258;2023-08-12T15:43:12;7.43;;;6.10;;
11731;SDS011;5922;53.734;10.258;2023-08-12T15:45:40;6.43;;;5.83;;
11731;SDS011;5922;53.734;10.258;2023-08-12T15:48:07;6.23;;;5.63;;
11731;SDS011;5922;53.734;10.258;2023-08-12T15:50:35;6.93;;;6.23;;
11731;SDS011;5922;53.734;10.258;2023-08-12T15:53:07;8.37;;;6.10;;
11731;SDS011;5922;53.734;10.258;2023-08-12T15:55:34;6.67;;;6.07;;
11731;SDS011;5922;53.734;10.258;2023-08-12T15:58:04;6.53;;;5.83;;
11731;SDS011;5922;53.734;10.258;2023-08-12T16:00:46;6.90;;;6.20;;